Time;durP1;ratioP1;P1;durP2;ratioP2;P2;SDS_P1;SDS_P2;PMS_P1;PMS_P2;Temp;Humidity;BMP_temperature;BMP_pressure;BME280_temperature;BME280_humidity;BME280_pressure;Samples;Min_cycle;Max_cycle;Signal;HPM_P1;HPM_P2
2021/11/03 00:02:17;;;;;;;;;10.25;9.75;;;;;18.54;45.63;99400.88;4992794;28;50957;-44
2021/11/03 00:04:42;;;;;;;;;11.50;8.25;;;;;18.54;45.58;99400.06;4995688;27;51091;-48
2021/11/03 00:07:10;;;;;;;;;10.75;8.50;;;;;18.54;45.61;99394.56;4995821;28;51044;-49
2021/11/03 00:09:36;;;;;;;;;11.75;6.25;;;;;18.53;45.61;99398.38;4996264;28;51404;-47
2021/11/03 00:12:02;;;;;;;;;8.75;6.00;;;;;18.53;45.74;99399.22;4995460;28;51118;-49
2021/11/03 00:14:27;;;;;;;;;9.00;7.25;;;;;18.54;45.67;99400.88;4995613;28;51129;-45
2021/11/03 00:16:52;;;;;;;;;11.75;8.25;;;;;18.54;45.76;99397.31;4994194;28;51085;-47
2021/11/03 00:19:18;;;;;;;;;10.00;9.50;;;;;18.53;45.49;99381.94;4995746;28;51267;-47
2021/11/03 00:21:43;;;;;;;;;9.25;6.50;;;;;18.52;45.77;99386.59;4995293;28;51663;-48
2021/11/03 00:24:09;;;;;;;;;13.25;7.75;;;;;18.53;45.77;99381.94;4995226;28;51063;-49
2021/11/03 00:26:34;;;;;;;;;10.00;8.50;;;;;18.52;45.53;99389.31;5021715;28;50980;-48
2021/11/03 00:28:59;;;;;;;;;12.25;8.00;;;;;18.51;45.50;99371.22;5079150;27;51024;-49
2021/11/03 00:31:25;;;;;;;;;9.00;6.25;;;;;18.51;45.64;99373.94;5078746;27;52817;-49
2021/11/03 00:33:50;;;;;;;;;10.50;9.00;;;;;18.51;45.74;99373.94;5078818;27;51088;-49
2021/11/03 00:36:16;;;;;;;;;11.25;7.50;;;;;18.51;45.57;99368.47;5078575;27;51023;-48
2021/11/03 00:38:42;;;;;;;;;7.50;7.00;;;;;18.49;45.51;99358.84;5079008;27;51168;-50
2021/11/03 00:41:07;;;;;;;;;8.00;8.00;;;;;18.51;45.61;99367.63;5078536;28;51807;-49
2021/11/03 00:43:33;;;;;;;;;9.50;7.75;;;;;18.50;45.69;99355.84;5078873;27;51110;-49
2021/11/03 00:45:58;;;;;;;;;10.25;9.00;;;;;18.49;45.70;99354.19;5078787;27;51002;-49
2021/11/03 00:48:24;;;;;;;;;11.25;9.00;;;;;18.50;45.83;99365.97;5078594;27;51266;-47
2021/11/03 00:50:49;;;;;;;;;10.50;10.50;;;;;18.50;45.70;99360.50;5078609;27;51883;-44
2021/11/03 00:53:15;;;;;;;;;8.25;7.50;;;;;18.49;45.63;99358.84;5078696;27;51013;-45
2021/11/03 00:55:42;;;;;;;;;8.00;7.75;;;;;18.49;45.78;99361.56;5078946;27;51696;-50
2021/11/03 00:58:08;;;;;;;;;9.00;6.00;;;;;18.49;45.45;99354.19;5078692;28;51040;-47
2021/11/03 01:00:34;;;;;;;;;6.00;6.00;;;;;18.49;45.58;99354.19;5078332;27;51227;-44
2021/11/03 01:03:01;;;;;;;;;9.75;7.00;;;;;18.48;45.70;99341.53;5078153;27;51045;-45
2021/11/03 01:05:27;;;;;;;;;6.50;5.75;;;;;18.50;45.78;99346.78;5078164;27;51010;-43
2021/11/03 01:07:53;;;;;;;;;8.50;7.50;;;;;18.48;45.81;99341.53;5078588;27;51374;-46
2021/11/03 01:10:20;;;;;;;;;6.00;5.00;;;;;18.50;45.83;99341.31;5078089;27;51644;-42
2021/11/03 01:12:46;;;;;;;;;7.00;6.25;;;;;18.48;45.67;99344.28;5078197;27;51231;-42
2021/11/03 01:15:18;;;;;;;;;9.50;6.25;;;;;18.49;45.73;99347.88;5077721;27;51151;-42
2021/11/03 01:17:43;;;;;;;;;6.75;5.75;;;;;18.49;45.64;99350.59;5078199;27;51004;-48
2021/11/03 01:20:11;;;;;;;;;8.75;6.00;;;;;18.48;45.48;99349.78;5093944;27;53172;-44
2021/11/03 01:22:38;;;;;;;;;5.00;5.00;;;;;18.48;45.70;99346.19;5078378;27;51059;-44
2021/11/03 01:25:05;;;;;;;;;7.00;5.00;;;;;18.49;45.64;99347.88;5078358;27;51072;-46
2021/11/03 01:27:31;;;;;;;;;5.25;5.25;;;;;18.48;45.63;99346.19;5019458;28;51114;-48
2021/11/03 01:29:56;;;;;;;;;5.25;4.75;;;;;18.49;45.52;99347.88;4994641;28;51784;-47
2021/11/03 01:32:21;;;;;;;;;6.00;5.50;;;;;18.48;45.84;99348.94;4994605;28;51196;-44
2021/11/03 01:34:47;;;;;;;;;6.50;5.50;;;;;18.47;45.79;99359.09;4994645;28;50950;-46
2021/11/03 01:37:12;;;;;;;;;6.25;5.75;;;;;18.48;45.58;99351.69;4994958;28;51251;-44
2021/11/03 01:39:37;;;;;;;;;4.75;4.75;;;;;18.46;45.62;99361.00;4994492;28;51133;-48
2021/11/03 01:42:03;;;;;;;;;5.00;5.00;;;;;18.46;45.79;99358.25;4994951;28;50997;-48
2021/11/03 01:44:29;;;;;;;;;4.75;4.50;;;;;18.46;45.73;99361.00;4994898;28;51266;-47
2021/11/03 01:47:14;;;;;;;;;2.25;2.25;;;;;18.46;45.71;99360.16;4994735;28;51335;-48
2021/11/03 01:49:40;;;;;;;;;4.75;4.00;;;;;18.46;45.66;99363.72;4994330;28;52033;-47
2021/11/03 01:52:09;;;;;;;;;5.25;5.25;;;;;18.45;45.72;99362.06;4994694;28;51076;-46
2021/11/03 01:54:55;;;;;;;;;3.25;3.00;;;;;18.46;45.82;99365.66;4994728;28;51056;-48
2021/11/03 01:57:24;;;;;;;;;5.00;3.50;;;;;18.46;45.78;99360.16;4994696;28;51117;-48
2021/11/03 01:59:53;;;;;;;;;4.25;4.25;;;;;18.45;45.75;99359.34;4994107;28;52058;-49
2021/11/03 02:02:20;;;;;;;;;4.50;4.50;;;;;18.45;45.66;99355.75;4994373;28;51372;-47
2021/11/03 02:04:48;;;;;;;;;6.00;4.75;;;;;18.45;45.68;99359.34;4994360;28;51127;-43
2021/11/03 02:07:17;;;;;;;;;3.50;3.50;;;;;18.45;45.84;99358.50;4994753;28;51136;-47
2021/11/03 02:09:43;;;;;;;;;4.75;4.00;;;;;18.44;45.56;99363.16;4994076;28;52001;-45
2021/11/03 02:12:29;;;;;;;;;7.00;3.75;;;;;18.43;45.78;99349.66;4993948;28;51469;-48
2021/11/03 02:14:54;;;;;;;;;6.50;5.25;;;;;18.44;45.76;99354.94;4994376;28;51063;-47
2021/11/03 02:17:22;;;;;;;;;5.00;3.75;;;;;18.44;45.90;99360.41;4994226;28;50956;-44
2021/11/03 02:19:49;;;;;;;;;6.50;4.00;;;;;18.44;45.80;99359.56;4992366;27;51191;-47
2021/11/03 02:22:23;;;;;;;;;5.00;3.75;;;;;18.43;46.18;99355.97;4994460;28;51400;-48
2021/11/03 02:24:54;;;;;;;;;3.25;3.00;;;;;18.44;45.71;99363.16;4994066;28;51082;-43
2021/11/03 02:27:22;;;;;;;;;5.00;2.25;;;;;18.43;45.86;99355.16;5046165;28;50961;-46
2021/11/03 02:29:47;;;;;;;;;4.00;3.00;;;;;18.42;45.67;99362.53;5076775;28;51018;-43
2021/11/03 02:32:21;;;;;;;;;3.00;3.00;;;;;18.43;45.67;99355.16;5077222;27;51059;-50
2021/11/03 02:34:47;;;;;;;;;3.00;3.00;;;;;18.43;45.96;99360.63;5076806;27;51136;-44
2021/11/03 02:37:28;;;;;;;;;2.75;2.75;;;;;18.43;45.87;99358.72;5077575;27;51200;-47
2021/11/03 02:40:03;;;;;;;;;3.50;3.50;;;;;18.42;45.81;99351.56;5076755;27;51053;-45
2021/11/03 02:42:32;;;;;;;;;7.25;4.00;;;;;18.42;45.76;99350.75;5076987;27;51180;-47
2021/11/03 02:45:02;;;;;;;;;5.00;2.75;;;;;18.42;45.70;99358.97;5076979;27;51163;-49
2021/11/03 02:47:27;;;;;;;;;4.75;4.25;;;;;18.42;46.04;99362.53;5076862;27;51091;-48
2021/11/03 02:49:53;;;;;;;;;2.25;2.25;;;;;18.42;45.78;99354.31;5076520;27;51760;-48
2021/11/03 02:52:22;;;;;;;;;4.00;2.75;;;;;18.42;45.74;99358.97;5076905;27;51155;-47
2021/11/03 02:54:48;;;;;;;;;6.00;3.00;;;;;18.42;45.61;99370.75;5076826;28;51112;-47
2021/11/03 02:57:14;;;;;;;;;4.50;3.00;;;;;18.41;45.67;99366.34;5076957;27;51065;-49
2021/11/03 02:59:39;;;;;;;;;3.00;3.00;;;;;18.40;45.81;99356.47;5076330;27;51655;-49
2021/11/03 03:02:05;;;;;;;;;3.00;3.00;;;;;18.41;45.99;99371.84;5076511;27;51026;-43
2021/11/03 03:04:37;;;;;;;;;4.75;3.00;;;;;18.41;45.66;99360.88;5076651;27;51048;-44
2021/11/03 03:07:04;;;;;;;;;3.75;3.00;;;;;18.41;45.77;99362.78;5076814;27;50955;-43
2021/11/03 03:09:30;;;;;;;;;4.00;3.00;;;;;18.41;45.86;99363.63;5076418;28;52755;-45
2021/11/03 03:11:59;;;;;;;;;3.00;3.00;;;;;18.40;45.74;99367.44;5076261;27;51127;-44
2021/11/03 03:14:28;;;;;;;;;2.75;2.75;;;;;18.41;45.67;99369.09;5076366;27;51101;-49
2021/11/03 03:16:54;;;;;;;;;2.00;2.00;;;;;18.41;45.69;99362.78;5076375;27;51033;-50
2021/11/03 03:19:19;;;;;;;;;2.75;2.75;;;;;18.41;45.64;99371.84;5074560;28;53746;-48
2021/11/03 03:21:45;;;;;;;;;4.00;3.50;;;;;18.40;45.65;99369.34;5076440;27;51090;-48
2021/11/03 03:24:12;;;;;;;;;3.00;2.25;;;;;18.40;45.77;99375.66;5076352;27;51085;-46
2021/11/03 03:26:38;;;;;;;;;4.00;3.00;;;;;18.39;45.62;99370.44;5047137;27;51219;-49
2021/11/03 03:29:05;;;;;;;;;4.00;3.00;;;;;18.39;45.79;99374.00;4991772;28;52112;-50
2021/11/03 03:31:30;;;;;;;;;2.00;2.00;;;;;18.39;46.40;99376.75;4993025;28;51312;-49
2021/11/03 03:33:59;;;;;;;;;1.75;1.75;;;;;18.39;45.77;99390.44;4993310;28;51204;-47
2021/11/03 03:36:26;;;;;;;;;3.00;3.00;;;;;18.39;45.65;99390.44;4993122;28;51057;-48
2021/11/03 03:38:52;;;;;;;;;2.00;2.00;;;;;18.38;45.80;99394.28;4992201;28;52681;-50
2021/11/03 03:41:20;;;;;;;;;4.25;4.00;;;;;18.38;45.96;99391.53;4993130;28;51068;-49
2021/11/03 03:43:45;;;;;;;;;2.25;2.25;;;;;18.39;45.86;99395.09;4993274;28;51068;-46
2021/11/03 03:46:14;;;;;;;;;4.00;2.00;;;;;18.38;45.77;99393.44;4993339;28;50942;-48
2021/11/03 03:48:40;;;;;;;;;3.50;2.50;;;;;18.37;45.58;99403.56;4992650;28;51462;-50
2021/11/03 03:51:07;;;;;;;;;1.50;1.50;;;;;18.38;45.83;99402.50;4993007;28;51418;-49
2021/11/03 03:53:33;;;;;;;;;4.00;3.00;;;;;18.37;45.76;99403.56;4993208;28;51156;-48
2021/11/03 03:55:58;;;;;;;;;1.75;1.75;;;;;18.38;45.91;99407.16;4993212;28;50957;-49
2021/11/03 03:58:24;;;;;;;;;2.00;2.00;;;;;18.38;45.87;99407.97;4992811;28;51778;-48
2021/11/03 04:00:51;;;;;;;;;4.75;3.00;;;;;18.37;45.75;99402.75;4992489;28;51299;-46
2021/11/03 04:03:17;;;;;;;;;2.75;2.75;;;;;18.38;45.91;99412.63;4992962;28;51020;-50
2021/11/03 04:05:45;;;;;;;;;2.25;2.25;;;;;18.37;45.60;99410.97;4993068;28;51147;-46
2021/11/03 04:08:12;;;;;;;;;2.00;2.00;;;;;18.38;45.86;99405.25;4992756;28;51089;-49
2021/11/03 04:10:38;;;;;;;;;3.75;3.75;;;;;18.38;45.65;99409.88;4992528;28;51408;-48
2021/11/03 04:13:04;;;;;;;;;1.75;1.75;;;;;18.39;45.82;99415.13;4992640;28;51146;-48
2021/11/03 04:15:30;;;;;;;;;2.00;2.00;;;;;18.38;45.43;99418.13;4992746;28;51255;-46
2021/11/03 04:17:55;;;;;;;;;2.00;1.75;;;;;18.37;45.62;99411.81;4992230;28;51211;-46
2021/11/03 04:20:20;;;;;;;;;1.75;1.75;;;;;18.37;45.76;99422.78;4992713;28;50960;-47
2021/11/03 04:22:46;;;;;;;;;0.25;0.25;;;;;18.36;45.77;99421.09;4992586;28;51119;-51
2021/11/03 04:25:13;;;;;;;;;1.75;1.75;;;;;18.36;45.64;99426.59;4992760;28;51139;-48
2021/11/03 04:27:38;;;;;;;;;1.00;1.00;;;;;18.36;45.97;99423.84;5055027;28;51933;-47
2021/11/03 04:30:05;;;;;;;;;1.75;1.75;;;;;18.36;45.69;99434.81;5075585;28;51136;-46
2021/11/03 04:32:30;;;;;;;;;3.00;3.00;;;;;18.35;45.57;99435.06;5075361;27;51040;-49
2021/11/03 04:34:56;;;;;;;;;2.00;2.00;;;;;18.36;45.99;99440.28;5073933;28;51020;-47
2021/11/03 04:37:21;;;;;;;;;3.75;2.00;;;;;18.36;45.66;99436.72;5075253;27;51655;-48
2021/11/03 04:39:46;;;;;;;;;2.50;2.50;;;;;18.34;45.78;99434.22;5075241;27;51024;-43
2021/11/03 04:42:12;;;;;;;;;1.50;1.50;;;;;18.34;45.78;99444.31;5075467;27;51392;-48
2021/11/03 04:44:38;;;;;;;;;5.50;2.50;;;;;18.35;45.71;99444.13;5075637;27;51030;-47
2021/11/03 04:47:05;;;;;;;;;2.75;2.75;;;;;18.34;45.80;99441.59;5075027;27;51216;-47
2021/11/03 04:49:30;;;;;;;;;2.00;2.00;;;;;18.35;45.91;99451.50;5075602;27;51425;-45
2021/11/03 04:51:55;;;;;;;;;2.75;2.75;;;;;18.34;45.82;99441.59;5078860;27;50974;-45
2021/11/03 04:54:21;;;;;;;;;2.00;2.00;;;;;18.33;45.75;99448.97;5077623;28;50987;-49
2021/11/03 04:56:46;;;;;;;;;2.00;2.00;;;;;18.33;45.73;99443.50;5078305;27;52001;-48
2021/11/03 04:59:13;;;;;;;;;4.25;2.75;;;;;18.35;45.74;99440.53;5077354;28;51444;-45
2021/11/03 05:01:38;;;;;;;;;1.75;1.75;;;;;18.32;45.84;99444.56;5078403;27;51050;-48
2021/11/03 05:04:04;;;;;;;;;2.50;2.50;;;;;18.32;45.89;99452.81;5078895;27;51446;-50
2021/11/03 05:06:32;;;;;;;;;2.00;2.00;;;;;18.33;45.79;99443.50;5078298;27;51722;-48
2021/11/03 05:08:58;;;;;;;;;4.00;2.25;;;;;18.32;45.69;99444.56;5078602;27;51326;-48
2021/11/03 05:11:24;;;;;;;;;2.75;2.75;;;;;18.31;45.84;99442.91;5077013;28;51173;-50
2021/11/03 05:13:50;;;;;;;;;3.25;2.75;;;;;18.33;45.69;99448.16;5078237;27;51400;-47
2021/11/03 05:16:21;;;;;;;;;4.00;4.00;;;;;18.32;45.81;99447.31;5077996;27;51574;-50
2021/11/03 05:18:47;;;;;;;;;1.25;1.25;;;;;18.32;45.32;99454.72;5078116;27;51302;-47
2021/11/03 05:21:12;;;;;;;;;3.75;2.25;;;;;18.32;45.67;99458.28;5078203;27;51167;-42
2021/11/03 05:23:39;;;;;;;;;2.75;2.75;;;;;18.31;45.62;99459.38;5078462;27;51258;-44
2021/11/03 05:26:05;;;;;;;;;3.00;3.00;;;;;18.31;45.82;99459.38;5068516;27;51964;-47
2021/11/03 05:28:31;;;;;;;;;3.25;3.25;;;;;18.31;45.68;99456.63;4994915;28;51046;-48
2021/11/03 05:30:57;;;;;;;;;4.25;3.75;;;;;18.31;45.81;99459.38;4994612;28;51080;-49
2021/11/03 05:33:22;;;;;;;;;3.00;3.00;;;;;18.32;45.68;99457.44;4995029;28;50952;-47
2021/11/03 05:35:47;;;;;;;;;3.50;3.25;;;;;18.31;45.83;99456.63;4994519;28;50862;-43
2021/11/03 05:38:13;;;;;;;;;2.75;2.75;;;;;18.31;45.68;99459.38;4994653;28;51130;-49
2021/11/03 05:40:39;;;;;;;;;6.50;3.50;;;;;18.30;45.86;99454.97;4993591;28;51580;-49
2021/11/03 05:43:04;;;;;;;;;4.00;2.50;;;;;18.31;45.69;99458.53;4994692;28;51047;-49
2021/11/03 05:45:30;;;;;;;;;3.00;3.00;;;;;18.30;45.66;99462.34;4994475;28;51148;-48
2021/11/03 05:47:56;;;;;;;;;3.25;3.00;;;;;18.30;45.82;99459.59;4994537;28;51149;-48
2021/11/03 05:50:27;;;;;;;;;2.25;2.25;;;;;18.30;45.57;99467.81;4994642;28;51072;-46
2021/11/03 05:52:53;;;;;;;;;3.75;3.25;;;;;18.30;45.72;99465.91;4994887;28;51221;-50
2021/11/03 05:55:20;;;;;;;;;2.75;2.75;;;;;18.30;45.66;99463.19;4994468;28;51080;-47
2021/11/03 05:57:46;;;;;;;;;4.00;4.00;;;;;18.30;45.74;99459.59;4994481;28;51220;-45
2021/11/03 06:00:22;;;;;;;;;2.50;2.50;;;;;18.29;45.46;99466.16;4994028;28;51095;-47
2021/11/03 06:02:47;;;;;;;;;2.00;2.00;;;;;18.29;45.75;99466.16;4994289;28;51472;-47
2021/11/03 06:05:14;;;;;;;;;2.50;2.50;;;;;18.29;45.79;99468.91;4994391;28;51023;-49
2021/11/03 06:07:41;;;;;;;;;4.00;4.00;;;;;18.28;45.49;99472.72;4994510;28;51387;-48
2021/11/03 06:10:08;;;;;;;;;4.00;2.75;;;;;18.28;45.86;99472.72;4994614;28;51270;-49
2021/11/03 06:12:34;;;;;;;;;3.00;3.00;;;;;18.27;45.93;99480.13;4994373;28;51083;-47
2021/11/03 06:14:59;;;;;;;;;3.25;3.00;;;;;18.27;45.76;99477.38;4994215;28;51014;-47
2021/11/03 06:17:25;;;;;;;;;3.00;3.00;;;;;18.27;45.54;99482.84;4993916;28;51184;-48
2021/11/03 06:19:51;;;;;;;;;4.00;4.00;;;;;18.29;45.93;99490.84;4994218;28;51239;-45
2021/11/03 06:22:16;;;;;;;;;3.00;2.25;;;;;18.28;45.86;99490.00;4994224;28;51032;-48
2021/11/03 06:24:43;;;;;;;;;4.00;3.00;;;;;18.28;45.64;99489.16;4994065;28;51922;-49
2021/11/03 06:27:09;;;;;;;;;4.00;2.00;;;;;18.29;45.86;99488.09;5040002;28;51302;-49
2021/11/03 06:29:34;;;;;;;;;4.50;3.00;;;;;18.28;45.91;99489.16;5077170;27;51242;-47
2021/11/03 06:32:00;;;;;;;;;4.00;4.00;;;;;18.28;45.87;99491.91;5077430;27;51160;-48
2021/11/03 06:34:26;;;;;;;;;5.00;4.50;;;;;18.28;45.89;99491.91;5076727;27;50962;-46
2021/11/03 06:36:51;;;;;;;;;3.25;3.25;;;;;18.27;45.56;99499.31;5076715;27;51107;-47
2021/11/03 06:39:17;;;;;;;;;3.25;3.25;;;;;18.27;45.42;99502.03;5077038;27;51017;-47
2021/11/03 06:41:43;;;;;;;;;4.00;4.00;;;;;18.27;45.69;99506.69;5077209;27;50984;-46
2021/11/03 06:44:09;;;;;;;;;3.75;3.75;;;;;18.27;45.69;99507.53;5076816;27;51147;-44
2021/11/03 06:46:35;;;;;;;;;4.00;4.00;;;;;18.27;45.90;99509.44;5076659;27;51067;-42
2021/11/03 06:49:01;;;;;;;;;3.75;3.75;;;;;18.27;45.72;99514.91;5076569;27;51204;-45
2021/11/03 06:51:26;;;;;;;;;6.00;3.00;;;;;18.26;45.70;99516.81;5076790;27;51057;-44
2021/11/03 06:53:52;;;;;;;;;5.00;5.00;;;;;18.26;45.64;99516.81;5076738;27;51414;-48
2021/11/03 06:56:17;;;;;;;;;5.50;5.00;;;;;18.26;45.68;99522.31;5076586;27;51115;-48
2021/11/03 06:58:43;;;;;;;;;5.50;4.75;;;;;18.25;45.68;99517.91;5076798;27;51180;-46
2021/11/03 07:01:09;;;;;;;;;2.50;2.50;;;;;18.26;45.91;99518.75;5076424;27;50951;-46
2021/11/03 07:03:36;;;;;;;;;4.75;3.75;;;;;18.25;45.93;99539.84;5076044;27;51724;-49
2021/11/03 07:06:01;;;;;;;;;3.25;3.25;;;;;18.26;45.88;99543.41;5076598;27;51325;-49
2021/11/03 07:08:27;;;;;;;;;3.00;3.00;;;;;18.26;45.86;99541.50;5076588;27;51172;-45
2021/11/03 07:10:55;;;;;;;;;6.00;6.00;;;;;18.25;45.75;99550.81;5076625;27;51329;-46
2021/11/03 07:13:22;;;;;;;;;5.00;3.00;;;;;18.25;45.96;99553.53;5075031;27;52039;-45
2021/11/03 07:15:48;;;;;;;;;5.25;5.00;;;;;18.25;45.93;99556.28;5075861;27;51236;-49
2021/11/03 07:18:14;;;;;;;;;5.75;4.75;;;;;18.24;45.82;99554.63;5076033;28;51033;-48
2021/11/03 07:20:43;;;;;;;;;5.00;5.00;;;;;18.25;45.95;99561.75;5076489;28;51064;-44
2021/11/03 07:23:10;;;;;;;;;5.00;5.00;;;;;18.25;45.79;99561.75;5075822;27;51865;-49
2021/11/03 07:25:35;;;;;;;;;4.75;4.75;;;;;18.24;45.82;99570.22;5076038;27;51107;-43
2021/11/03 07:28:00;;;;;;;;;5.00;5.00;;;;;18.24;45.66;99562.00;5000350;27;51712;-44
2021/11/03 07:30:33;;;;;;;;;5.00;4.25;;;;;18.24;45.86;99575.72;4993020;28;51178;-44
2021/11/03 07:32:59;;;;;;;;;4.75;4.75;;;;;18.25;45.82;99572.72;4992594;28;52263;-42
2021/11/03 07:35:25;;;;;;;;;8.50;6.00;;;;;18.24;45.92;99584.78;4992697;28;51035;-46
2021/11/03 07:37:52;;;;;;;;;4.25;4.25;;;;;18.25;45.82;99593.81;4992672;28;51024;-43
2021/11/03 07:40:22;;;;;;;;;6.50;5.00;;;;;18.24;45.77;99598.47;4992929;28;51236;-43
2021/11/03 07:42:48;;;;;;;;;6.00;4.25;;;;;18.23;45.84;99599.50;4992529;28;53011;-48
2021/11/03 07:45:14;;;;;;;;;5.00;4.75;;;;;18.23;45.62;99607.75;4992984;28;51590;-47
2021/11/03 07:47:39;;;;;;;;;8.00;5.75;;;;;18.24;45.74;99597.63;4992366;28;51177;-48
2021/11/03 07:50:09;;;;;;;;;4.00;4.00;;;;;18.23;45.95;99604.16;4992736;28;51067;-46
2021/11/03 07:52:34;;;;;;;;;5.75;5.00;;;;;18.23;46.01;99606.91;4992544;28;51970;-49
2021/11/03 07:55:00;;;;;;;;;6.50;6.50;;;;;18.23;45.48;99613.22;4992670;28;51024;-47
2021/11/03 07:57:25;;;;;;;;;4.75;4.75;;;;;18.24;45.79;99614.09;4992504;28;51217;-44
2021/11/03 07:59:51;;;;;;;;;4.50;4.50;;;;;18.22;45.84;99619.78;4992684;28;51066;-47
2021/11/03 08:02:16;;;;;;;;;7.25;5.00;;;;;18.22;45.60;99614.28;4991911;28;50952;-46
2021/11/03 08:04:42;;;;;;;;;4.00;3.25;;;;;18.22;45.75;99624.44;4992126;28;51089;-46
2021/11/03 08:07:08;;;;;;;;;3.25;3.25;;;;;18.23;45.72;99637.06;4992376;28;51167;-48
2021/11/03 08:09:33;;;;;;;;;6.00;5.00;;;;;18.23;45.79;99639.81;4992491;28;51121;-45
2021/11/03 08:12:01;;;;;;;;;4.50;4.50;;;;;18.22;45.83;99643.63;4991897;28;52689;-49
2021/11/03 08:14:30;;;;;;;;;5.75;5.25;;;;;18.23;45.71;99646.13;4992467;28;51284;-48
2021/11/03 08:16:58;;;;;;;;;5.25;5.25;;;;;18.22;45.68;99647.19;4992392;28;51050;-46
2021/11/03 08:19:29;;;;;;;;;5.00;5.00;;;;;18.23;45.50;99645.28;4992132;28;51000;-45
2021/11/03 08:21:54;;;;;;;;;6.50;6.25;;;;;18.22;45.63;99641.72;4991927;28;50996;-47
2021/11/03 08:24:19;;;;;;;;;6.75;5.00;;;;;18.23;45.58;99653.50;4993517;28;51047;-46
2021/11/03 08:26:45;;;;;;;;;5.00;5.00;;;;;18.22;45.92;99655.41;5027811;28;51212;-46
2021/11/03 08:29:10;;;;;;;;;8.00;4.75;;;;;18.23;45.82;99659.00;5078884;27;51251;-47
2021/11/03 08:31:38;;;;;;;;;7.00;5.50;;;;;18.22;45.48;99669.13;5078750;27;51014;-45
2021/11/03 08:34:04;;;;;;;;;4.75;4.75;;;;;18.23;45.78;99668.03;5078611;27;51496;-47
2021/11/03 08:36:30;;;;;;;;;5.00;4.75;;;;;18.24;45.87;99679.88;5078510;27;51131;-48
2021/11/03 08:38:58;;;;;;;;;6.00;4.25;;;;;18.23;45.79;99676.28;5078769;27;51003;-42
2021/11/03 08:41:27;;;;;;;;;5.00;5.00;;;;;18.23;45.67;99684.50;5078464;27;51287;-47
2021/11/03 08:43:52;;;;;;;;;5.00;4.50;;;;;18.22;45.81;99691.06;5078700;27;51065;-47
2021/11/03 08:46:18;;;;;;;;;4.75;4.00;;;;;18.24;45.69;99682.63;5078079;27;51011;-46
2021/11/03 08:48:43;;;;;;;;;4.75;4.75;;;;;18.23;45.75;99683.66;5078510;27;51331;-44
2021/11/03 08:51:09;;;;;;;;;5.25;5.25;;;;;18.23;45.89;99681.75;5078323;27;50986;-43
2021/11/03 08:53:34;;;;;;;;;6.00;6.00;;;;;18.23;45.82;99681.75;5078233;27;51298;-43
2021/11/03 08:55:59;;;;;;;;;5.00;5.00;;;;;18.23;45.58;99687.22;5078161;27;51160;-44
2021/11/03 08:58:28;;;;;;;;;4.50;4.50;;;;;18.24;45.70;99697.16;5078166;27;51240;-48
2021/11/03 09:00:55;;;;;;;;;5.00;5.00;;;;;18.24;45.59;99690.84;5076282;28;53051;-47
2021/11/03 09:03:21;;;;;;;;;4.75;4.75;;;;;18.23;45.79;99695.47;5078151;27;51099;-49
2021/11/03 09:05:47;;;;;;;;;4.50;4.50;;;;;18.23;45.74;99692.72;5078138;27;50949;-49
2021/11/03 09:08:14;;;;;;;;;4.25;4.25;;;;;18.23;45.66;99689.97;5078528;27;50952;-48
2021/11/03 09:10:46;;;;;;;;;9.25;5.75;;;;;18.23;45.75;99692.72;5077927;27;52081;-46
2021/11/03 09:13:14;;;;;;;;;3.50;2.75;;;;;18.25;45.71;99703.47;5078047;27;51314;-46
2021/11/03 09:15:40;;;;;;;;;5.25;4.50;;;;;18.24;45.91;99708.13;5077749;27;51109;-47
2021/11/03 09:18:06;;;;;;;;;4.00;4.00;;;;;18.25;45.58;99708.97;5077723;27;51274;-50
2021/11/03 09:20:31;;;;;;;;;6.25;5.25;;;;;18.24;45.40;99710.88;5076109;28;51103;-48
2021/11/03 09:22:56;;;;;;;;;5.00;5.00;;;;;18.25;45.53;99708.97;5077879;28;51139;-46
2021/11/03 09:25:22;;;;;;;;;6.50;4.00;;;;;18.26;45.55;99713.38;5077499;27;51135;-47
2021/11/03 09:27:48;;;;;;;;;5.75;5.75;;;;;18.26;45.85;99721.59;5009070;27;51135;-46
2021/11/03 09:30:21;;;;;;;;;5.25;4.50;;;;;18.25;45.58;99718.00;4994379;28;51956;-46
2021/11/03 09:32:48;;;;;;;;;5.25;5.00;;;;;18.27;45.92;99726.00;4994031;28;51040;-46
2021/11/03 09:35:14;;;;;;;;;7.25;5.50;;;;;18.27;45.61;99735.06;4993405;28;51114;-47
2021/11/03 09:37:40;;;;;;;;;5.25;5.25;;;;;18.27;45.69;99735.06;4994285;28;51213;-48
2021/11/03 09:40:08;;;;;;;;;7.00;6.00;;;;;18.28;45.61;99735.88;4993888;27;51398;-50
2021/11/03 09:42:34;;;;;;;;;7.25;7.25;;;;;18.28;45.74;99736.72;4994268;28;51298;-48
2021/11/03 09:44:59;;;;;;;;;11.25;10.75;;;;;18.28;45.29;99749.59;4994558;28;51105;-48
2021/11/03 09:47:33;;;;;;;;;8.50;7.75;;;;;18.29;45.65;99752.09;4994257;28;51050;-48
2021/11/03 09:50:19;;;;;;;;;9.50;8.50;;;;;18.30;45.50;99751.03;4993684;28;51871;-47
2021/11/03 09:52:53;;;;;;;;;9.50;8.75;;;;;18.30;45.60;99751.03;4993934;28;51158;-51
2021/11/03 09:55:28;;;;;;;;;8.00;8.00;;;;;18.31;45.60;99751.84;4993917;28;51083;-46
2021/11/03 09:58:25;;;;;;;;;10.50;9.00;;;;;18.32;45.51;99756.28;4993422;28;51227;-45
2021/11/03 10:01:16;;;;;;;;;8.25;7.25;;;;;18.33;45.55;99750.56;4999909;28;51886;-47
2021/11/03 10:03:49;;;;;;;;;11.25;8.25;;;;;18.34;45.51;99752.25;4992451;28;51297;-47
2021/11/03 10:06:14;;;;;;;;;10.75;7.50;;;;;18.35;45.64;99753.91;4993743;28;51098;-48
2021/11/03 10:08:44;;;;;;;;;10.50;9.00;;;;;18.36;45.60;99755.59;4994218;28;51080;-50
2021/11/03 10:11:40;;;;;;;;;11.25;10.00;;;;;18.37;45.45;99757.25;4993523;28;51815;-47
2021/11/03 10:14:07;;;;;;;;;12.50;10.75;;;;;18.39;45.50;99760.59;5014270;28;51204;-43
2021/11/03 10:16:38;;;;;;;;;8.50;5.75;;;;;18.37;45.40;99762.75;4993688;28;51094;-47
2021/11/03 10:19:09;;;;;;;;;15.75;9.00;;;;;18.38;45.54;99761.66;4993608;28;50965;-48
2021/11/03 10:21:45;;;;;;;;;16.50;10.00;;;;;18.38;45.50;99764.41;4993555;28;50991;-47
2021/11/03 10:24:14;;;;;;;;;13.50;10.25;;;;;18.40;45.67;99767.75;4993559;28;51808;-49
2021/11/03 10:26:54;;;;;;;;;11.00;11.00;;;;;18.40;45.41;99759.53;5022396;28;51056;-46
2021/11/03 10:29:26;;;;;;;;;10.00;9.75;;;;;18.40;45.65;99764.16;5076524;27;51097;-42
2021/11/03 10:31:54;;;;;;;;;15.25;11.75;;;;;18.39;45.47;99771.56;5076386;28;51088;-44
2021/11/03 10:34:34;;;;;;;;;13.00;11.75;;;;;18.40;45.22;99767.75;5076510;28;51151;-53
2021/11/03 10:37:26;;;;;;;;;16.25;14.50;;;;;18.40;45.34;99773.22;5076305;27;51122;-47
2021/11/03 10:40:17;;;;;;;;;18.50;15.00;;;;;18.41;45.49;99768.56;5076554;27;51110;-47
2021/11/03 10:42:50;;;;;;;;;19.25;16.50;;;;;18.42;45.42;99782.06;5075469;27;51061;-48
2021/11/03 10:45:18;;;;;;;;;20.25;14.50;;;;;18.42;45.11;99775.72;5075728;27;51166;-45
2021/11/03 10:47:45;;;;;;;;;19.50;15.00;;;;;18.43;45.31;99777.41;5074460;28;51125;-45
2021/11/03 10:50:45;;;;;;;;;19.75;15.50;;;;;18.42;45.60;99773.81;5076507;27;50976;-48
2021/11/03 10:53:35;;;;;;;;;14.00;12.50;;;;;18.44;45.34;99781.81;5076170;28;51877;-47
2021/11/03 10:56:06;;;;;;;;;20.25;15.75;;;;;18.46;45.31;99776.94;5076205;27;51080;-45
2021/11/03 10:58:31;;;;;;;;;20.50;16.00;;;;;18.45;45.30;99780.78;5076279;27;51087;-44
2021/11/03 11:00:59;;;;;;;;;17.75;15.25;;;;;18.46;45.33;99775.03;5075948;27;51255;-44
2021/11/03 11:03:28;;;;;;;;;15.75;13.00;;;;;18.46;45.28;99775.03;5075828;27;50965;-43
2021/11/03 11:06:10;;;;;;;;;19.25;15.50;;;;;18.48;45.30;99771.22;5075853;27;50904;-44
2021/11/03 11:08:48;;;;;;;;;20.75;18.50;;;;;18.48;45.24;99771.22;5075523;27;51074;-49
2021/11/03 11:11:15;;;;;;;;;21.75;17.50;;;;;18.48;45.19;99771.22;5076018;27;51238;-46
2021/11/03 11:13:49;;;;;;;;;22.00;17.25;;;;;18.49;45.27;99775.66;5074106;27;53943;-45
2021/11/03 11:16:14;;;;;;;;;19.50;14.00;;;;;18.49;45.28;99775.66;5075566;27;51072;-45
2021/11/03 11:19:03;;;;;;;;;17.00;13.00;;;;;18.48;45.27;99777.56;5075940;27;51535;-47
2021/11/03 11:21:50;;;;;;;;;17.25;15.00;;;;;18.49;45.17;99773.72;5075923;27;51040;-43
2021/11/03 11:24:18;;;;;;;;;18.50;15.00;;;;;18.49;45.10;99779.22;5075535;27;50912;-49
2021/11/03 11:27:02;;;;;;;;;16.75;15.25;;;;;18.48;45.20;99785.78;5044030;27;51629;-46
2021/11/03 11:29:56;;;;;;;;;20.25;15.25;;;;;18.49;45.18;99779.22;4992830;28;50998;-48
2021/11/03 11:32:30;;;;;;;;;15.75;14.75;;;;;18.49;45.23;99778.38;4992641;28;51220;-44
2021/11/03 11:35:17;;;;;;;;;15.25;13.25;;;;;18.49;44.96;99790.19;4992090;28;50941;-46
2021/11/03 11:38:00;;;;;;;;;14.25;14.25;;;;;18.49;45.08;99783.88;4992140;28;51277;-43